createdAt,value
2023-03-24T00:04:59.674Z,95135.09
2023-03-24T00:10:04.815Z,95123.44
2023-03-24T00:15:10.602Z,95114.50
2023-03-24T00:20:15.455Z,95117.69
2023-03-24T00:25:28.983Z,95096.91
2023-03-24T00:30:31.768Z,95101.28
2023-03-24T00:35:34.307Z,95084.03
2023-03-24T00:40:36.549Z,95069.81
2023-03-24T00:45:45.779Z,95076.53
2023-03-24T00:50:49.266Z,95063.19
2023-03-24T00:55:51.395Z,95051.44
2023-03-24T01:01:00.349Z,95056.16
2023-03-24T01:06:04.022Z,95049.91
2023-03-24T01:11:10.616Z,95048.34
2023-03-24T01:16:12.219Z,95059.81
2023-03-24T01:21:14.406Z,95061.44
2023-03-24T01:26:23.372Z,95064.97
2023-03-24T01:31:31.834Z,95069.69
2023-03-24T01:36:38.244Z,95061.44
2023-03-24T01:41:41.926Z,95054.38
2023-03-24T01:46:44.082Z,95046.59
2023-03-24T01:51:48.424Z,95036.00
2023-03-24T01:56:56.238Z,95067.91
2023-03-24T02:02:03.539Z,95086.59
2023-03-24T02:07:39.528Z,95055.69
2023-03-24T02:12:42.818Z,95057.66
2023-03-24T02:18:06.242Z,95077.38
2023-03-24T02:23:32.700Z,95091.19
2023-03-24T02:28:55.932Z,95077.22
2023-03-24T02:34:16.891Z,95071.38
2023-03-24T02:39:49.144Z,95069.94
2023-03-24T02:44:58.047Z,95043.31
2023-03-24T02:50:33.219Z,95051.22
2023-03-24T02:55:49.343Z,95032.84
2023-03-24T03:01:02.660Z,95016.81
2023-03-24T03:06:40.288Z,95003.13
2023-03-24T03:11:47.540Z,94985.53
2023-03-24T03:17:15.930Z,94987.19
2023-03-24T03:22:28.160Z,94985.31
2023-03-24T03:27:42.022Z,94968.06
2023-03-24T03:32:54.582Z,94963.75
2023-03-24T03:38:14.650Z,94961.47
2023-03-24T03:43:20.822Z,94949.78
2023-03-24T03:48:26.379Z,94940.09
2023-03-24T03:53:36.168Z,94935.06
2023-03-24T03:58:42.431Z,94935.94
2023-03-24T04:04:12.168Z,94916.75
2023-03-24T04:09:48.364Z,94928.63
2023-03-24T04:15:07.862Z,94917.28
2023-03-24T04:20:28.605Z,94919.69
2023-03-24T04:25:49.864Z,94924.41
2023-03-24T04:31:07.491Z,94919.03
2023-03-24T04:36:36.240Z,94921.44
2023-03-24T04:42:06.045Z,94932.53
2023-03-24T04:47:12.279Z,94939.66
2023-03-24T04:52:25.056Z,94919.00
2023-03-24T04:57:26.637Z,94918.31
2023-03-24T05:02:35.694Z,94919.28
2023-03-24T05:07:48.010Z,94938.94
2023-03-24T05:12:50.740Z,94934.06
2023-03-24T05:18:12.616Z,94950.53
2023-03-24T05:23:18.483Z,94953.81
2023-03-24T05:28:21.779Z,94951.94
2023-03-24T05:33:23.584Z,94951.06
2023-03-24T05:38:28.153Z,94952.94
2023-03-24T05:43:31.304Z,94950.53
2023-03-24T05:48:42.695Z,94945.81
2023-03-24T05:53:52.093Z,94941.97
2023-03-24T05:59:01.548Z,94936.03
2023-03-24T06:04:32.741Z,94939.13
2023-03-24T06:09:48.152Z,94941.88
2023-03-24T06:14:50.668Z,94933.66
2023-03-24T06:20:02.759Z,94926.59
2023-03-24T06:25:21.463Z,94932.44
2023-03-24T06:30:34.445Z,94930.78
2023-03-24T06:35:42.481Z,94939.81
2023-03-24T06:40:51.195Z,94943.06
2023-03-24T06:45:55.621Z,94938.78
2023-03-24T06:50:58.830Z,94937.16
2023-03-24T06:56:03.213Z,94917.06
2023-03-24T07:01:14.004Z,94907.44
2023-03-24T07:06:43.160Z,94910.41
2023-03-24T07:11:58.725Z,94916.56
2023-03-24T07:17:00.554Z,94918.22
2023-03-24T07:22:12.179Z,94911.19
2023-03-24T07:27:42.722Z,94909.22
2023-03-24T07:32:44.745Z,94922.59
2023-03-24T07:37:51.474Z,94938.84
2023-03-24T07:42:54.735Z,94955.69
2023-03-24T07:48:14.208Z,94960.44
2023-03-24T07:53:22.580Z,94956.00
2023-03-24T07:58:32.416Z,94958.31
2023-03-24T08:03:57.928Z,94966.28
2023-03-24T08:09:24.200Z,94974.88
2023-03-24T08:14:26.283Z,94985.25
2023-03-24T08:19:30.731Z,94987.38
2023-03-24T08:24:34.531Z,94999.47
2023-03-24T08:29:36.128Z,94993.91
2023-03-24T08:34:37.720Z,94992.19
2023-03-24T08:39:41.839Z,94995.09
2023-03-24T08:44:46.122Z,94995.75
2023-03-24T08:49:47.798Z,95007.78
2023-03-24T08:54:49.387Z,95007.44
2023-03-24T08:59:51.675Z,95007.03
2023-03-24T09:04:57.944Z,95010.59
2023-03-24T09:10:02.970Z,95021.78
2023-03-24T09:15:09.003Z,95022.72
2023-03-24T09:20:15.817Z,95035.69
2023-03-24T09:25:26.307Z,95041.25
2023-03-24T09:30:37.596Z,95037.84
2023-03-24T09:35:39.938Z,95037.66
2023-03-24T09:40:44.880Z,95044.34
2023-03-24T09:45:57.031Z,95043.91
2023-03-24T09:51:15.307Z,95047.00
2023-03-24T09:56:20.783Z,95040.91
2023-03-24T10:01:26.269Z,95064.06
2023-03-24T10:06:40.248Z,95064.47
2023-03-24T10:12:10.806Z,95071.19
2023-03-24T10:17:39.912Z,95072.19
2023-03-24T10:23:02.141Z,95066.41
2023-03-24T10:28:19.071Z,95058.63
2023-03-24T10:33:20.958Z,95071.00
2023-03-24T10:38:24.731Z,95062.41
2023-03-24T10:43:28.018Z,95037.28
2023-03-24T10:48:46.641Z,94989.59
2023-03-24T10:53:49.068Z,94944.34
2023-03-24T10:58:51.208Z,94956.94
2023-03-24T11:03:57.808Z,94991.69
2023-03-24T11:09:19.579Z,94998.19
2023-03-24T11:14:28.176Z,95008.91
2023-03-24T11:19:36.669Z,95019.34
2023-03-24T11:24:41.244Z,95031.28
2023-03-24T11:29:43.232Z,95027.41
2023-03-24T11:34:49.098Z,95039.88
2023-03-24T11:40:12.318Z,95041.91
2023-03-24T11:45:37.152Z,95052.91
2023-03-24T11:50:39.425Z,95027.59
2023-03-24T11:55:53.641Z,95018.16
2023-03-24T12:01:04.133Z,95013.16
2023-03-24T12:06:32.908Z,94992.91
2023-03-24T12:11:54.646Z,94992.81
2023-03-24T12:17:05.944Z,94984.72
2023-03-24T12:22:33.548Z,94980.44
2023-03-24T12:27:58.124Z,94960.91
2023-03-24T12:33:17.055Z,94970.00
2023-03-24T12:38:34.326Z,94962.66
2023-03-24T12:43:47.754Z,94953.56
2023-03-24T12:48:50.418Z,94958.38
2023-03-24T12:54:26.946Z,94950.81
2023-03-24T12:59:37.608Z,94938.78
2023-03-24T13:04:46.157Z,94939.88
2023-03-24T13:09:53.681Z,94930.78
2023-03-24T13:15:09.469Z,94920.69
2023-03-24T13:20:23.357Z,94925.28
2023-03-24T13:25:51.000Z,94917.94
2023-03-24T13:30:53.139Z,94925.53
2023-03-24T13:36:11.885Z,94917.28
2023-03-24T13:41:24.037Z,94910.66
2023-03-24T13:46:28.921Z,94916.50
2023-03-24T13:51:34.044Z,94921.00
2023-03-24T13:56:39.299Z,94911.41
2023-03-24T14:01:45.467Z,94909.34
2023-03-24T14:06:52.633Z,94910.75
2023-03-24T14:12:03.604Z,94884.09
2023-03-24T14:17:08.137Z,94879.78
2023-03-24T14:22:12.115Z,94877.69
2023-03-24T14:27:42.635Z,94861.91
2023-03-24T14:32:57.588Z,94863.34
2023-03-24T14:38:15.612Z,94866.84
2023-03-24T14:43:22.245Z,94863.78
2023-03-24T14:48:34.593Z,94857.25
2023-03-24T14:53:39.699Z,94846.88
2023-03-24T14:58:44.061Z,94842.59
2023-03-24T15:03:59.384Z,94844.91
2023-03-24T15:09:08.399Z,94856.69
2023-03-24T15:14:22.579Z,94860.63
2023-03-24T15:19:33.061Z,94866.94
2023-03-24T15:24:37.271Z,94862.19
2023-03-24T15:29:45.761Z,94852.63
2023-03-24T15:34:51.110Z,94857.94
2023-03-24T15:40:01.934Z,94868.00
2023-03-24T15:45:55.277Z,94860.75
2023-03-24T15:51:11.318Z,94876.94
2023-03-24T15:56:17.558Z,94879.94
2023-03-24T16:01:38.345Z,94863.38
2023-03-24T16:06:43.008Z,94873.50
2023-03-24T16:11:44.505Z,94904.63
2023-03-24T16:16:48.476Z,94939.38
2023-03-24T16:21:51.486Z,94956.69
2023-03-24T16:26:53.101Z,94944.25
2023-03-24T16:31:56.767Z,94949.53
2023-03-24T16:37:04.313Z,94959.84
2023-03-24T16:42:07.384Z,94959.19
2023-03-24T16:47:12.937Z,94977.19
2023-03-24T16:52:15.804Z,94965.31
2023-03-24T16:57:20.817Z,94978.75
2023-03-24T17:02:22.430Z,94990.41
2023-03-24T17:07:23.996Z,94952.56
2023-03-24T17:12:31.306Z,94951.22
2023-03-24T17:17:35.843Z,94962.94
2023-03-24T17:22:37.440Z,94979.75
2023-03-24T17:27:42.551Z,94966.38
2023-03-24T17:32:46.790Z,94975.09
2023-03-24T17:37:50.111Z,94987.16
2023-03-24T17:42:51.750Z,94982.25
2023-03-24T17:47:57.187Z,94997.88
2023-03-24T17:53:01.371Z,94999.25
2023-03-24T17:58:02.947Z,94997.72
2023-03-24T18:03:07.147Z,95009.22
2023-03-24T18:08:08.785Z,95015.75
2023-03-24T18:13:11.272Z,95007.66
2023-03-24T18:18:17.216Z,95004.63
2023-03-24T18:23:37.121Z,94998.09
2023-03-24T18:28:39.217Z,94996.47
2023-03-24T18:33:42.821Z,94997.03
2023-03-24T18:38:46.805Z,94989.66
2023-03-24T18:43:48.534Z,94990.00
2023-03-24T18:48:53.107Z,95001.06
2023-03-24T18:53:55.204Z,94987.34
2023-03-24T18:59:01.412Z,94997.44
2023-03-24T19:04:03.034Z,95003.34
2023-03-24T19:09:11.387Z,94997.03
2023-03-24T19:14:13.027Z,95009.88
2023-03-24T19:19:21.096Z,95024.00
2023-03-24T19:24:24.076Z,95003.63
2023-03-24T19:29:26.382Z,95020.06
2023-03-24T19:34:30.991Z,95025.19
2023-03-24T19:39:32.710Z,95016.56
2023-03-24T19:44:35.468Z,95019.16
2023-03-24T19:49:37.607Z,95021.13
2023-03-24T19:54:39.260Z,95028.19
2023-03-24T19:59:40.878Z,95036.41
2023-03-24T20:04:43.041Z,95051.66
2023-03-24T20:09:46.948Z,95066.97
2023-03-24T20:14:51.085Z,95059.53
2023-03-24T20:19:54.312Z,95065.06
2023-03-24T20:24:56.355Z,95067.09
2023-03-24T20:30:04.609Z,95072.97
2023-03-24T20:35:06.858Z,95075.75
2023-03-24T20:40:11.820Z,95090.59
2023-03-24T20:45:15.862Z,95086.41
2023-03-24T20:50:17.526Z,95066.81
2023-03-24T20:55:19.139Z,95077.81
2023-03-24T21:00:20.796Z,95082.22
2023-03-24T21:05:22.374Z,95088.13
2023-03-24T21:10:26.345Z,95089.66
2023-03-24T21:15:29.011Z,95078.28
2023-03-24T21:20:30.778Z,95084.91
2023-03-24T21:25:34.045Z,95073.22
2023-03-24T21:30:37.028Z,95075.66
2023-03-24T21:35:42.804Z,95078.09
2023-03-24T21:40:49.205Z,95073.94
2023-03-24T21:45:58.423Z,95069.28
2023-03-24T21:51:03.865Z,95076.34
2023-03-24T21:56:09.143Z,95076.03
2023-03-24T22:01:11.060Z,95078.88
2023-03-24T22:06:15.666Z,95075.53
2023-03-24T22:11:18.982Z,95086.09
2023-03-24T22:16:20.661Z,95084.59
2023-03-24T22:21:23.404Z,95080.28
2023-03-24T22:26:25.026Z,95076.38
2023-03-24T22:31:33.336Z,95092.41
2023-03-24T22:36:34.893Z,95103.38
2023-03-24T22:41:40.861Z,95104.56
2023-03-24T22:46:48.835Z,95110.59
2023-03-24T22:51:50.560Z,95104.50
2023-03-24T22:56:54.632Z,95102.59
2023-03-24T23:02:08.596Z,95108.53
2023-03-24T23:07:11.304Z,95114.03
2023-03-24T23:12:13.634Z,95110.63
2023-03-24T23:17:17.692Z,95114.50
2023-03-24T23:22:22.190Z,95117.69
2023-03-24T23:27:23.799Z,95112.22
2023-03-24T23:32:27.795Z,95125.56
2023-03-24T23:37:33.473Z,95127.97
2023-03-24T23:42:36.964Z,95135.00
2023-03-24T23:47:38.560Z,95133.22
2023-03-24T23:52:46.552Z,95120.81
2023-03-24T23:57:49.206Z,95124.47
